createdAt,value
2018-09-09T00:01:40.000Z,29.3
2018-09-09T00:02:40.000Z,29.3
2018-09-09T00:04:40.000Z,29.3
2018-09-09T00:05:40.000Z,29.3
2018-09-09T00:06:40.000Z,29.4
2018-09-09T00:08:40.000Z,29.4
2018-09-09T00:09:40.000Z,29.4
2018-09-09T00:11:40.000Z,29.4
2018-09-09T00:13:40.000Z,29.4
2018-09-09T00:14:40.000Z,29.4
2018-09-09T00:16:40.000Z,29.4
2018-09-09T00:17:40.000Z,29.4
2018-09-09T00:19:40.000Z,29.3
2018-09-09T00:20:40.000Z,29.3
2018-09-09T00:22:25.000Z,29.3
2018-09-09T00:23:40.000Z,29.3
2018-09-09T00:24:40.000Z,29.3
2018-09-09T00:25:40.000Z,29.3
2018-09-09T00:26:40.000Z,29.3
2018-09-09T00:28:40.000Z,29.3
2018-09-09T00:30:40.000Z,29.3
2018-09-09T00:32:40.000Z,29.2
2018-09-09T00:33:40.000Z,29.2
2018-09-09T00:35:40.000Z,29.2
2018-09-09T00:36:40.000Z,29.2
2018-09-09T00:38:40.000Z,29.3
2018-09-09T00:39:40.000Z,29.3
2018-09-09T00:41:40.000Z,29.3
2018-09-09T00:43:40.000Z,29.3
2018-09-09T00:44:40.000Z,29.2
2018-09-09T00:45:40.000Z,29.3
2018-09-09T00:47:40.000Z,29.3
2018-09-09T00:48:40.000Z,29.3
2018-09-09T00:49:40.000Z,29.4
2018-09-09T00:50:40.000Z,29.4
2018-09-09T00:52:40.000Z,29.5
2018-09-09T00:54:40.000Z,29.4
2018-09-09T00:55:40.000Z,29.4
2018-09-09T00:57:40.000Z,29.4
2018-09-09T00:58:40.000Z,29.4
2018-09-09T01:00:40.000Z,29.4
2018-09-09T01:01:40.000Z,29.4
2018-09-09T01:03:40.000Z,29.4
2018-09-09T01:05:40.000Z,29.3
2018-09-09T01:07:40.000Z,29.1
2018-09-09T01:09:40.000Z,29.1
2018-09-09T01:11:40.000Z,29
2018-09-09T01:12:40.000Z,29.1
2018-09-09T01:13:40.000Z,29.1
2018-09-09T01:14:40.000Z,29.2
2018-09-09T01:15:40.000Z,29.3
2018-09-09T01:17:40.000Z,29.3
2018-09-09T01:18:40.000Z,29.3
2018-09-09T01:20:40.000Z,29.3
2018-09-09T01:21:40.000Z,29.3
2018-09-09T01:23:40.000Z,29.3
2018-09-09T01:25:40.000Z,29.2
2018-09-09T01:27:40.000Z,29.2
2018-09-09T01:28:40.000Z,29.2
2018-09-09T01:30:40.000Z,29.2
2018-09-09T01:31:40.000Z,29.2
2018-09-09T01:33:40.000Z,29.3
2018-09-09T01:35:40.000Z,29.2
2018-09-09T01:37:40.000Z,29.2
2018-09-09T01:39:40.000Z,29.2
2018-09-09T01:40:40.000Z,29.2
2018-09-09T01:42:40.000Z,29.2
2018-09-09T01:43:40.000Z,29.2
2018-09-09T01:45:40.000Z,29.3
2018-09-09T01:47:40.000Z,29.2
2018-09-09T01:49:40.000Z,29.1
2018-09-09T01:51:40.000Z,29.1
2018-09-09T01:52:40.000Z,29.1
2018-09-09T01:54:25.000Z,29.1
2018-09-09T01:55:40.000Z,29.1
2018-09-09T01:56:40.000Z,29.1
2018-09-09T01:58:40.000Z,29.2
2018-09-09T01:59:40.000Z,29.2
2018-09-09T02:00:40.000Z,29.3
2018-09-09T02:01:40.000Z,29.3
2018-09-09T02:03:40.000Z,29.4
2018-09-09T02:05:40.000Z,29.4
2018-09-09T02:06:40.000Z,29.3
2018-09-09T02:07:40.000Z,29.4
2018-09-09T02:09:40.000Z,29.4
2018-09-09T02:11:40.000Z,29.3
2018-09-09T02:13:25.000Z,29.3
2018-09-09T02:14:40.000Z,29.2
2018-09-09T02:15:40.000Z,29.2
2018-09-09T02:17:40.000Z,29.3
2018-09-09T02:19:40.000Z,29.2
2018-09-09T02:20:40.000Z,29.2
2018-09-09T02:21:40.000Z,29.3
2018-09-09T02:23:40.000Z,29.3
2018-09-09T02:24:40.000Z,29.3
2018-09-09T02:25:40.000Z,29.4
2018-09-09T02:27:40.000Z,29.4
2018-09-09T02:29:40.000Z,29.3
2018-09-09T02:31:40.000Z,29.3
2018-09-09T02:32:40.000Z,29.3
2018-09-09T02:34:24.000Z,29.3
2018-09-09T02:35:40.000Z,29.2
2018-09-09T02:37:40.000Z,29.2
2018-09-09T02:38:40.000Z,29.1
2018-09-09T02:40:40.000Z,29.1
2018-09-09T02:42:40.000Z,29.1
2018-09-09T02:44:40.000Z,29.1
2018-09-09T02:45:40.000Z,29.1
2018-09-09T02:46:40.000Z,29.2
2018-09-09T02:48:40.000Z,29.2
2018-09-09T02:49:40.000Z,29.3
2018-09-09T02:51:24.000Z,29.3
2018-09-09T02:52:40.000Z,29.3
2018-09-09T02:53:40.000Z,29.3
2018-09-09T02:54:40.000Z,29.3
2018-09-09T02:56:40.000Z,29.3
2018-09-09T02:57:40.000Z,29.4
2018-09-09T02:59:40.000Z,29.4
2018-09-09T03:00:40.000Z,29.4
2018-09-09T03:01:40.000Z,29.4
2018-09-09T03:02:40.000Z,29.4
2018-09-09T03:03:40.000Z,29.4
2018-09-09T03:05:24.000Z,29.4
2018-09-09T03:06:40.000Z,29.3
2018-09-09T03:07:40.000Z,29.3
2018-09-09T03:09:40.000Z,29.3
2018-09-09T03:11:40.000Z,29.3
2018-09-09T03:13:40.000Z,29.2
2018-09-09T03:15:40.000Z,29.1
2018-09-09T03:17:40.000Z,29
2018-09-09T03:18:40.000Z,29
2018-09-09T03:19:40.000Z,29
2018-09-09T03:20:40.000Z,29
2018-09-09T03:22:40.000Z,29.1
2018-09-09T03:24:40.000Z,29.1
2018-09-09T03:25:40.000Z,29.1
2018-09-09T03:27:40.000Z,29.1
2018-09-09T03:28:40.000Z,29.2
2018-09-09T03:30:24.000Z,29.2
2018-09-09T03:31:40.000Z,29.2
2018-09-09T03:32:40.000Z,29.2
2018-09-09T03:34:40.000Z,29.2
2018-09-09T03:36:40.000Z,29.1
2018-09-09T03:37:40.000Z,29.1
2018-09-09T03:39:40.000Z,29.1
2018-09-09T03:41:40.000Z,29.1
2018-09-09T03:43:40.000Z,29.1
2018-09-09T03:45:40.000Z,29.1
2018-09-09T03:46:40.000Z,29.1
2018-09-09T03:48:40.000Z,29.1
2018-09-09T03:49:40.000Z,29.1
2018-09-09T03:50:40.000Z,29.1
2018-09-09T03:52:40.000Z,29.2
2018-09-09T03:54:40.000Z,29.1
2018-09-09T03:55:40.000Z,29.1
2018-09-09T03:56:40.000Z,29.1
2018-09-09T03:58:40.000Z,29.1
2018-09-09T04:00:40.000Z,29.1
2018-09-09T04:02:40.000Z,29.1
2018-09-09T04:04:25.000Z,29
2018-09-09T04:05:40.000Z,29
2018-09-09T04:06:40.000Z,29
2018-09-09T04:08:40.000Z,29.1
2018-09-09T04:10:40.000Z,29
2018-09-09T04:12:25.000Z,29
2018-09-09T04:13:40.000Z,28.9
2018-09-09T04:14:40.000Z,29
2018-09-09T04:15:40.000Z,29
2018-09-09T04:17:40.000Z,29
2018-09-09T04:19:40.000Z,29
2018-09-09T04:21:40.000Z,29
2018-09-09T04:23:40.000Z,29
2018-09-09T04:25:40.000Z,29
2018-09-09T04:26:40.000Z,29
2018-09-09T04:28:40.000Z,29.1
2018-09-09T04:29:40.000Z,29.1
2018-09-09T04:30:40.000Z,29.1
2018-09-09T04:32:40.000Z,29.1
2018-09-09T04:33:40.000Z,29.1
2018-09-09T04:35:25.000Z,29.2
2018-09-09T04:36:40.000Z,29.1
2018-09-09T04:38:39.000Z,29.1
2018-09-09T04:39:39.000Z,29.1
2018-09-09T04:40:39.000Z,29.1
2018-09-09T04:42:24.000Z,29.2
2018-09-09T04:43:39.000Z,29.1
2018-09-09T04:44:39.000Z,29.1
2018-09-09T04:46:39.000Z,29.1
2018-09-09T04:48:24.000Z,29.1
2018-09-09T04:49:39.000Z,29.1
2018-09-09T04:50:39.000Z,29.1
2018-09-09T04:51:39.000Z,29.1
2018-09-09T04:53:39.000Z,29.1
2018-09-09T04:55:39.000Z,29.1
2018-09-09T04:57:39.000Z,29
2018-09-09T04:58:39.000Z,29.1
2018-09-09T05:00:39.000Z,29
2018-09-09T05:02:39.000Z,29
2018-09-09T05:03:39.000Z,29
2018-09-09T05:04:39.000Z,29.1
2018-09-09T05:05:39.000Z,29.1
2018-09-09T05:07:39.000Z,29.1
2018-09-09T05:09:39.000Z,29.1
2018-09-09T05:11:39.000Z,29.1
2018-09-09T05:12:39.000Z,29.1
2018-09-09T05:14:39.000Z,29.1
2018-09-09T05:15:39.000Z,29.2
2018-09-09T05:16:39.000Z,29.2
2018-09-09T05:18:39.000Z,29.3
2018-09-09T05:20:39.000Z,29.3
2018-09-09T05:21:39.000Z,29.2
2018-09-09T05:23:39.000Z,29.3
2018-09-09T05:25:39.000Z,29.2
2018-09-09T05:26:39.000Z,29.1
2018-09-09T05:28:39.000Z,29.2
2018-09-09T05:29:39.000Z,29.2
2018-09-09T05:31:39.000Z,29.2
2018-09-09T05:32:39.000Z,29.3
2018-09-09T05:34:39.000Z,29.2
2018-09-09T05:35:39.000Z,29.2
2018-09-09T05:36:39.000Z,29.3
2018-09-09T05:38:39.000Z,29.3
2018-09-09T05:39:39.000Z,29.3
2018-09-09T05:41:40.000Z,29.3
2018-09-09T05:43:40.000Z,29.3
2018-09-09T05:45:40.000Z,29.2
2018-09-09T05:47:40.000Z,29.2
2018-09-09T05:49:40.000Z,29.2
2018-09-09T05:51:40.000Z,29.2
2018-09-09T05:52:40.000Z,29.2
2018-09-09T05:54:40.000Z,29.2
2018-09-09T05:55:40.000Z,29.2
2018-09-09T05:57:40.000Z,29.3
2018-09-09T05:58:40.000Z,29.3
2018-09-09T06:00:40.000Z,29.4
2018-09-09T06:01:40.000Z,29.4
2018-09-09T06:02:40.000Z,29.5
2018-09-09T06:04:40.000Z,29.5
2018-09-09T06:06:40.000Z,29.5
2018-09-09T06:07:40.000Z,29.5
2018-09-09T06:09:40.000Z,29.5
2018-09-09T06:11:40.000Z,29.5
2018-09-09T06:12:40.000Z,29.4
2018-09-09T06:14:40.000Z,29.4
2018-09-09T06:15:40.000Z,29.4
2018-09-09T06:17:40.000Z,29.4
2018-09-09T06:18:40.000Z,29.4
2018-09-09T06:20:40.000Z,29.5
2018-09-09T06:22:40.000Z,29.5
2018-09-09T06:24:40.000Z,29.4
2018-09-09T06:25:40.000Z,29.4
2018-09-09T06:27:40.000Z,29.5
2018-09-09T06:29:40.000Z,29.5
2018-09-09T06:31:40.000Z,29.5
2018-09-09T06:33:40.000Z,29.5
2018-09-09T06:34:40.000Z,29.6
2018-09-09T06:36:25.000Z,29.7
2018-09-09T06:37:40.000Z,29.6
2018-09-09T06:39:40.000Z,29.6
2018-09-09T06:40:40.000Z,29.6
2018-09-09T06:42:40.000Z,29.6
2018-09-09T06:44:40.000Z,29.6
2018-09-09T06:46:40.000Z,29.6
2018-09-09T06:47:40.000Z,29.7
2018-09-09T06:49:40.000Z,29.8
2018-09-09T06:51:24.000Z,29.8
2018-09-09T06:52:40.000Z,29.8
2018-09-09T06:53:40.000Z,29.8
2018-09-09T06:55:40.000Z,29.9
2018-09-09T06:57:24.000Z,30
2018-09-09T06:58:40.000Z,30
2018-09-09T06:59:40.000Z,30
2018-09-09T07:01:24.000Z,30.2
2018-09-09T07:02:40.000Z,30.2
2018-09-09T07:04:40.000Z,30.2
2018-09-09T07:06:40.000Z,30.1
2018-09-09T07:07:40.000Z,30.2
2018-09-09T07:08:40.000Z,30.2
2018-09-09T07:09:40.000Z,30.3
2018-09-09T07:11:40.000Z,30.3
2018-09-09T07:13:40.000Z,30.3
2018-09-09T07:15:40.000Z,30.3
2018-09-09T07:17:40.000Z,30.2
2018-09-09T07:19:40.000Z,30.2
2018-09-09T07:20:40.000Z,30.2
2018-09-09T07:21:40.000Z,30.2
2018-09-09T07:23:40.000Z,30.2
2018-09-09T07:24:40.000Z,30.3
2018-09-09T07:25:40.000Z,30.3
2018-09-09T07:27:40.000Z,30.4
2018-09-09T07:29:40.000Z,30.4
2018-09-09T07:31:40.000Z,30.4
2018-09-09T07:33:40.000Z,30.4
2018-09-09T07:34:40.000Z,30.5
2018-09-09T07:36:40.000Z,30.6
2018-09-09T07:38:40.000Z,30.7
2018-09-09T07:40:24.000Z,30.7
2018-09-09T07:41:40.000Z,30.8
2018-09-09T07:43:40.000Z,30.8
2018-09-09T07:44:40.000Z,30.8
2018-09-09T07:45:40.000Z,30.9
2018-09-09T07:47:40.000Z,31
2018-09-09T07:49:24.000Z,31.1
2018-09-09T07:50:40.000Z,31.1
2018-09-09T07:52:24.000Z,31.2
2018-09-09T07:53:40.000Z,31.2
2018-09-09T07:54:40.000Z,31.3
2018-09-09T07:56:40.000Z,31.4
2018-09-09T07:58:40.000Z,31.4
2018-09-09T07:59:40.000Z,31.5
2018-09-09T08:01:40.000Z,31.2
2018-09-09T08:03:40.000Z,30.9
2018-09-09T08:04:40.000Z,30.8
2018-09-09T08:06:40.000Z,30.6
2018-09-09T08:08:40.000Z,30.5
2018-09-09T08:09:40.000Z,30.5
2018-09-09T08:10:40.000Z,30.5
2018-09-09T08:12:40.000Z,30.4
2018-09-09T08:13:40.000Z,30.4
2018-09-09T08:15:40.000Z,30.3
2018-09-09T08:16:40.000Z,30.3
2018-09-09T08:17:40.000Z,30.3
2018-09-09T08:19:40.000Z,30.4
2018-09-09T08:20:40.000Z,30.3
2018-09-09T08:21:40.000Z,30.4
2018-09-09T08:22:40.000Z,30.4
2018-09-09T08:24:40.000Z,30.4
2018-09-09T08:26:40.000Z,30.3
2018-09-09T08:27:40.000Z,30.2
2018-09-09T08:29:40.000Z,30.2
2018-09-09T08:30:40.000Z,30.2
2018-09-09T08:31:40.000Z,30.2
2018-09-09T08:33:40.000Z,30.2
2018-09-09T08:35:40.000Z,30.2
2018-09-09T08:36:40.000Z,30.1
2018-09-09T08:38:40.000Z,30.1
2018-09-09T08:40:40.000Z,30.1
2018-09-09T08:41:40.000Z,30.1
2018-09-09T08:43:40.000Z,30.1
2018-09-09T08:45:40.000Z,30
2018-09-09T08:47:40.000Z,30
2018-09-09T08:48:40.000Z,30
2018-09-09T08:50:40.000Z,29.9
2018-09-09T08:52:40.000Z,29.9
2018-09-09T08:54:40.000Z,29.9
2018-09-09T08:56:25.000Z,29.9
2018-09-09T08:57:40.000Z,29.8
2018-09-09T08:59:40.000Z,29.8
2018-09-09T09:00:40.000Z,29.8
2018-09-09T09:01:40.000Z,29.9
2018-09-09T09:03:40.000Z,29.9
2018-09-09T09:05:40.000Z,29.9
2018-09-09T09:07:40.000Z,29.8
2018-09-09T09:09:40.000Z,29.8
2018-09-09T09:10:40.000Z,29.8
2018-09-09T09:11:40.000Z,29.9
2018-09-09T09:12:40.000Z,29.9
2018-09-09T09:14:40.000Z,30
2018-09-09T09:15:40.000Z,30
2018-09-09T09:16:40.000Z,30.1
2018-09-09T09:18:40.000Z,30.1
2018-09-09T09:19:40.000Z,30.1
2018-09-09T09:21:40.000Z,30.1
2018-09-09T09:22:40.000Z,30.1
2018-09-09T09:24:40.000Z,30
2018-09-09T09:25:40.000Z,30
2018-09-09T09:26:40.000Z,30
2018-09-09T09:27:40.000Z,30.1
2018-09-09T09:29:40.000Z,30.1
2018-09-09T09:31:25.000Z,30.1
2018-09-09T09:32:40.000Z,30
2018-09-09T09:34:40.000Z,30
2018-09-09T09:36:40.000Z,29.9
2018-09-09T09:37:40.000Z,29.9
2018-09-09T09:38:40.000Z,29.9
2018-09-09T09:39:40.000Z,30
2018-09-09T09:40:40.000Z,30
2018-09-09T09:42:40.000Z,30
2018-09-09T09:43:40.000Z,30
2018-09-09T09:45:40.000Z,30
2018-09-09T09:47:40.000Z,29.9
2018-09-09T09:49:40.000Z,29.9
2018-09-09T09:50:40.000Z,29.9
2018-09-09T09:52:40.000Z,29.9
2018-09-09T09:54:40.000Z,29.8
2018-09-09T09:56:40.000Z,29.7
2018-09-09T09:57:40.000Z,29.7
2018-09-09T09:59:40.000Z,29.8
2018-09-09T10:00:40.000Z,29.8
2018-09-09T10:01:40.000Z,29.9
2018-09-09T10:03:40.000Z,29.9
2018-09-09T10:05:40.000Z,29.9
2018-09-09T10:06:40.000Z,29.9
2018-09-09T10:07:40.000Z,30
2018-09-09T10:08:40.000Z,30
2018-09-09T10:10:40.000Z,30
2018-09-09T10:12:40.000Z,30
2018-09-09T10:13:40.000Z,30
2018-09-09T10:15:40.000Z,30
2018-09-09T10:17:40.000Z,29.9
2018-09-09T10:19:40.000Z,29.9
2018-09-09T10:21:40.000Z,29.9
2018-09-09T10:23:40.000Z,29.8
2018-09-09T10:25:40.000Z,29.8
2018-09-09T10:26:40.000Z,29.8
2018-09-09T10:27:40.000Z,29.9
2018-09-09T10:29:40.000Z,29.9
2018-09-09T10:30:40.000Z,30
2018-09-09T10:31:40.000Z,30
2018-09-09T10:32:40.000Z,30
2018-09-09T10:34:40.000Z,30
2018-09-09T10:35:40.000Z,30
2018-09-09T10:37:40.000Z,30
2018-09-09T10:38:40.000Z,30
2018-09-09T10:40:40.000Z,30
2018-09-09T10:42:40.000Z,30
2018-09-09T10:44:40.000Z,30
2018-09-09T10:46:40.000Z,29.9
2018-09-09T10:48:40.000Z,29.8
2018-09-09T10:50:40.000Z,29.8
2018-09-09T10:52:40.000Z,29.7
2018-09-09T10:54:40.000Z,29.6
2018-09-09T10:56:40.000Z,29.5
2018-09-09T10:58:40.000Z,29.6
2018-09-09T10:59:40.000Z,29.6
2018-09-09T11:01:40.000Z,29.6
2018-09-09T11:02:40.000Z,29.6
2018-09-09T11:03:40.000Z,29.7
2018-09-09T11:04:40.000Z,29.8
2018-09-09T11:05:40.000Z,29.9
2018-09-09T11:06:40.000Z,30
2018-09-09T11:08:40.000Z,30
2018-09-09T11:10:40.000Z,29.9
2018-09-09T11:12:40.000Z,29.8
2018-09-09T11:14:40.000Z,29.8
2018-09-09T11:16:40.000Z,29.8
2018-09-09T11:17:40.000Z,29.8
2018-09-09T11:19:40.000Z,29.8
2018-09-09T11:20:40.000Z,29.9
2018-09-09T11:22:40.000Z,30
2018-09-09T11:24:40.000Z,29.9
2018-09-09T11:25:40.000Z,29.9
2018-09-09T11:27:40.000Z,29.9
2018-09-09T11:29:40.000Z,29.9
2018-09-09T11:30:40.000Z,29.9
2018-09-09T11:32:40.000Z,29.9
2018-09-09T11:34:40.000Z,29.9
2018-09-09T11:35:40.000Z,29.9
2018-09-09T11:37:40.000Z,30
2018-09-09T11:39:40.000Z,30
2018-09-09T11:40:40.000Z,30
2018-09-09T11:42:40.000Z,29.9
2018-09-09T11:43:40.000Z,29.9
2018-09-09T11:45:40.000Z,30
2018-09-09T11:47:40.000Z,29.9
2018-09-09T11:49:40.000Z,29.9
2018-09-09T11:50:40.000Z,29.9
2018-09-09T11:52:40.000Z,29.9
2018-09-09T11:53:40.000Z,30
2018-09-09T11:55:40.000Z,30
2018-09-09T11:56:40.000Z,30.1
2018-09-09T11:58:40.000Z,30.1
2018-09-09T12:00:40.000Z,30.1
2018-09-09T12:01:40.000Z,30.1
2018-09-09T12:03:40.000Z,30.1
2018-09-09T12:05:40.000Z,30.1
2018-09-09T12:06:40.000Z,30.1
2018-09-09T12:08:40.000Z,30.1
2018-09-09T12:10:40.000Z,30
2018-09-09T12:12:40.000Z,30
2018-09-09T12:14:40.000Z,30
2018-09-09T12:15:40.000Z,30
2018-09-09T12:17:40.000Z,30.1
2018-09-09T12:18:40.000Z,30.1
2018-09-09T12:20:40.000Z,30.1
2018-09-09T12:22:40.000Z,30
2018-09-09T12:24:40.000Z,30
2018-09-09T12:26:40.000Z,29.9
2018-09-09T12:27:40.000Z,30
2018-09-09T12:29:25.000Z,30
2018-09-09T12:30:40.000Z,30
2018-09-09T12:31:40.000Z,30.1
2018-09-09T12:32:40.000Z,30.1
2018-09-09T12:34:40.000Z,30.2
2018-09-09T12:36:40.000Z,30.1
2018-09-09T12:37:40.000Z,30.1
2018-09-09T12:39:40.000Z,30.1
2018-09-09T12:41:25.000Z,30.2
2018-09-09T12:42:40.000Z,30.1
2018-09-09T12:43:40.000Z,30.1
2018-09-09T12:45:40.000Z,30.2
2018-09-09T12:47:40.000Z,30.1
2018-09-09T12:48:40.000Z,30.1
2018-09-09T12:50:40.000Z,30.1
2018-09-09T12:52:40.000Z,30.1
2018-09-09T12:54:40.000Z,30.1
2018-09-09T12:55:40.000Z,30.1
2018-09-09T12:57:25.000Z,30.2
2018-09-09T12:58:40.000Z,30.1
2018-09-09T12:59:40.000Z,30.2
2018-09-09T13:01:40.000Z,30.2
2018-09-09T13:03:40.000Z,30.2
2018-09-09T13:04:40.000Z,30.3
2018-09-09T13:05:40.000Z,30.3
2018-09-09T13:06:40.000Z,30.3
2018-09-09T13:08:40.000Z,30.3
2018-09-09T13:09:40.000Z,30.4
2018-09-09T13:11:40.000Z,30.4
2018-09-09T13:13:40.000Z,30.4
2018-09-09T13:14:40.000Z,30.4
2018-09-09T13:15:40.000Z,30.4
2018-09-09T13:16:40.000Z,30.4
2018-09-09T13:17:40.000Z,30.5
2018-09-09T13:18:40.000Z,30.5
2018-09-09T13:20:40.000Z,30.5
2018-09-09T13:22:40.000Z,30.4
2018-09-09T13:24:40.000Z,30.4
2018-09-09T13:26:25.000Z,30.4
2018-09-09T13:27:40.000Z,30.3
2018-09-09T13:29:40.000Z,30.4
2018-09-09T13:31:40.000Z,30.5
2018-09-09T13:32:40.000Z,30.7
2018-09-09T13:33:40.000Z,31.2
2018-09-09T13:35:40.000Z,32.9
2018-09-09T13:36:40.000Z,33.9
2018-09-09T13:38:40.000Z,35.6
2018-09-09T13:39:40.000Z,36
2018-09-09T13:41:40.000Z,36.2
2018-09-09T13:43:40.000Z,35.8
2018-09-09T13:44:40.000Z,35.4
2018-09-09T13:46:40.000Z,34.3
2018-09-09T13:48:40.000Z,33.4
2018-09-09T13:50:40.000Z,32.7
2018-09-09T13:51:40.000Z,32.5
2018-09-09T13:53:40.000Z,32.1
2018-09-09T13:54:40.000Z,32
2018-09-09T13:56:40.000Z,31.7
2018-09-09T13:58:40.000Z,31.5
2018-09-09T13:59:40.000Z,31.4
2018-09-09T14:00:40.000Z,31.4
2018-09-09T14:01:40.000Z,31.3
2018-09-09T14:03:40.000Z,31.2
2018-09-09T14:04:40.000Z,31.2
2018-09-09T14:06:40.000Z,31.1
2018-09-09T14:08:40.000Z,31
2018-09-09T14:09:40.000Z,31
2018-09-09T14:10:40.000Z,31
2018-09-09T14:12:40.000Z,30.9
2018-09-09T14:13:40.000Z,30.8
2018-09-09T14:15:40.000Z,30.8
2018-09-09T14:17:40.000Z,30.7
2018-09-09T14:19:40.000Z,30.6
2018-09-09T14:21:40.000Z,30.5
2018-09-09T14:23:40.000Z,30.4
2018-09-09T14:24:40.000Z,30.4
2018-09-09T14:26:25.000Z,30.4
2018-09-09T14:27:40.000Z,30.4
2018-09-09T14:28:40.000Z,30.4
2018-09-09T14:30:40.000Z,30.5
2018-09-09T14:32:40.000Z,30.4
2018-09-09T14:34:40.000Z,30.4
2018-09-09T14:36:40.000Z,30.3
2018-09-09T14:38:40.000Z,30.2
2018-09-09T14:39:40.000Z,30.2
2018-09-09T14:40:40.000Z,30.3
2018-09-09T14:41:40.000Z,30.3
2018-09-09T14:43:40.000Z,30.4
2018-09-09T14:44:40.000Z,30.4
2018-09-09T14:46:40.000Z,30.5
2018-09-09T14:47:40.000Z,30.5
2018-09-09T14:49:40.000Z,30.5
2018-09-09T14:51:40.000Z,30.4
2018-09-09T14:53:40.000Z,30.3
2018-09-09T14:55:40.000Z,30.2
2018-09-09T14:57:25.000Z,30.2
2018-09-09T14:58:40.000Z,30.1
2018-09-09T14:59:40.000Z,30.1
2018-09-09T15:01:25.000Z,30.2
2018-09-09T15:02:40.000Z,30.1
2018-09-09T15:03:40.000Z,30.2
2018-09-09T15:05:25.000Z,30.3
2018-09-09T15:06:40.000Z,30.4
2018-09-09T15:07:40.000Z,30.4
2018-09-09T15:09:40.000Z,30.5
2018-09-09T15:11:40.000Z,30.6
2018-09-09T15:13:40.000Z,30.6
2018-09-09T15:15:40.000Z,30.6
2018-09-09T15:16:40.000Z,30.6
2018-09-09T15:17:40.000Z,30.6
2018-09-09T15:19:40.000Z,30.6
2018-09-09T15:21:40.000Z,30.6
2018-09-09T15:22:40.000Z,30.6
2018-09-09T15:24:40.000Z,30.7
2018-09-09T15:25:40.000Z,30.7
2018-09-09T15:27:40.000Z,30.8
2018-09-09T15:28:40.000Z,30.8
2018-09-09T15:30:40.000Z,30.9
2018-09-09T15:32:40.000Z,30.9
2018-09-09T15:33:40.000Z,30.9
2018-09-09T15:35:25.000Z,31
2018-09-09T15:36:40.000Z,31
2018-09-09T15:37:40.000Z,31
2018-09-09T15:39:40.000Z,31
2018-09-09T15:41:40.000Z,31
2018-09-09T15:43:40.000Z,30.9
2018-09-09T15:45:40.000Z,30.8
2018-09-09T15:46:40.000Z,30.8
2018-09-09T15:48:40.000Z,30.9
2018-09-09T15:50:40.000Z,30.9
2018-09-09T15:52:40.000Z,30.9
2018-09-09T15:54:40.000Z,30.8
2018-09-09T15:56:25.000Z,30.8
2018-09-09T15:57:40.000Z,30.7
2018-09-09T15:59:40.000Z,30.7
2018-09-09T16:00:40.000Z,30.7
2018-09-09T16:02:40.000Z,30.8
2018-09-09T16:04:40.000Z,30.8
2018-09-09T16:06:40.000Z,30.7
2018-09-09T16:07:40.000Z,30.7
2018-09-09T16:08:40.000Z,30.8
2018-09-09T16:09:40.000Z,30.8
2018-09-09T16:11:40.000Z,30.8
2018-09-09T16:12:40.000Z,30.8
2018-09-09T16:14:40.000Z,30.8
2018-09-09T16:15:40.000Z,30.9
2018-09-09T16:16:40.000Z,30.9
2018-09-09T16:17:40.000Z,31
2018-09-09T16:18:40.000Z,31
2018-09-09T16:20:40.000Z,31
2018-09-09T16:22:40.000Z,30.9
2018-09-09T16:24:40.000Z,30.9
2018-09-09T16:26:40.000Z,30.8
2018-09-09T16:27:40.000Z,30.9
2018-09-09T16:29:40.000Z,30.8
2018-09-09T16:30:40.000Z,30.8
2018-09-09T16:31:40.000Z,30.8
2018-09-09T16:33:40.000Z,30.9
2018-09-09T16:34:40.000Z,30.9
2018-09-09T16:36:40.000Z,30.9
2018-09-09T16:38:40.000Z,30.8
2018-09-09T16:39:40.000Z,30.7
2018-09-09T16:41:40.000Z,30.7
2018-09-09T16:43:40.000Z,30.6
2018-09-09T16:45:40.000Z,30.6
2018-09-09T16:46:40.000Z,30.6
2018-09-09T16:48:40.000Z,30.6
2018-09-09T16:50:40.000Z,30.5
2018-09-09T16:51:40.000Z,30.5
2018-09-09T16:53:25.000Z,30.5
2018-09-09T16:54:40.000Z,30.5
2018-09-09T16:55:40.000Z,30.5
2018-09-09T16:56:40.000Z,30.6
2018-09-09T16:58:40.000Z,30.6
2018-09-09T17:00:40.000Z,30.6
2018-09-09T17:02:40.000Z,30.5
2018-09-09T17:03:40.000Z,30.5
2018-09-09T17:04:40.000Z,30.6
2018-09-09T17:06:40.000Z,30.6
2018-09-09T17:07:40.000Z,30.6
2018-09-09T17:09:40.000Z,30.6
2018-09-09T17:10:40.000Z,30.6
2018-09-09T17:11:40.000Z,30.6
2018-09-09T17:13:40.000Z,30.6
2018-09-09T17:14:40.000Z,30.6
2018-09-09T17:16:40.000Z,30.6
2018-09-09T17:17:40.000Z,30.6
2018-09-09T17:19:40.000Z,30.6
2018-09-09T17:21:40.000Z,30.5
2018-09-09T17:23:40.000Z,30.5
2018-09-09T17:25:40.000Z,30.4
2018-09-09T17:27:40.000Z,30.4
2018-09-09T17:29:40.000Z,30.3
2018-09-09T17:30:40.000Z,30.3
2018-09-09T17:32:40.000Z,30.4
2018-09-09T17:33:40.000Z,30.4
2018-09-09T17:35:25.000Z,30.4
2018-09-09T17:36:40.000Z,30.4
2018-09-09T17:37:40.000Z,30.4
2018-09-09T17:39:40.000Z,30.3
2018-09-09T17:41:40.000Z,30.3
2018-09-09T17:42:40.000Z,30.3
2018-09-09T17:43:40.000Z,30.3
2018-09-09T17:45:40.000Z,30.3
2018-09-09T17:47:25.000Z,30.3
2018-09-09T17:48:40.000Z,30.3
2018-09-09T17:50:40.000Z,30.3
2018-09-09T17:51:40.000Z,30.3
2018-09-09T17:52:40.000Z,30.3
2018-09-09T17:54:40.000Z,30.3
2018-09-09T17:55:40.000Z,30.3
2018-09-09T17:56:40.000Z,30.3
2018-09-09T17:58:40.000Z,30.3
2018-09-09T18:00:40.000Z,30.3
2018-09-09T18:02:40.000Z,30.2
2018-09-09T18:04:40.000Z,30.2
2018-09-09T18:05:40.000Z,30.1
2018-09-09T18:07:40.000Z,30.2
2018-09-09T18:08:40.000Z,30.2
2018-09-09T18:10:40.000Z,30.1
2018-09-09T18:11:40.000Z,30.1
2018-09-09T18:12:40.000Z,30.2
2018-09-09T18:14:40.000Z,30.2
2018-09-09T18:16:40.000Z,30.2
2018-09-09T18:17:40.000Z,30.2
2018-09-09T18:19:40.000Z,30.1
2018-09-09T18:20:40.000Z,30.1
2018-09-09T18:22:40.000Z,30.1
2018-09-09T18:23:40.000Z,30.1
2018-09-09T18:25:40.000Z,30.1
2018-09-09T18:27:40.000Z,30.1
2018-09-09T18:28:40.000Z,30.1
2018-09-09T18:30:40.000Z,30.1
2018-09-09T18:32:40.000Z,30.1
2018-09-09T18:33:40.000Z,30.1
2018-09-09T18:35:25.000Z,30.1
2018-09-09T18:36:40.000Z,30
2018-09-09T18:38:40.000Z,30
2018-09-09T18:40:40.000Z,30
2018-09-09T18:42:40.000Z,29.9
2018-09-09T18:43:40.000Z,29.9
2018-09-09T18:45:40.000Z,29.9
2018-09-09T18:47:40.000Z,29.9
2018-09-09T18:48:40.000Z,29.9
2018-09-09T18:50:40.000Z,29.9
2018-09-09T18:52:25.000Z,29.9
2018-09-09T18:53:40.000Z,29.9
2018-09-09T18:54:40.000Z,29.9
2018-09-09T18:55:40.000Z,29.9
2018-09-09T18:57:40.000Z,29.9
2018-09-09T18:58:40.000Z,30
2018-09-09T19:00:40.000Z,30
2018-09-09T19:02:40.000Z,30
2018-09-09T19:04:40.000Z,29.9
2018-09-09T19:06:40.000Z,29.9
2018-09-09T19:07:40.000Z,29.9
2018-09-09T19:09:40.000Z,29.9
2018-09-09T19:10:40.000Z,29.9
2018-09-09T19:12:40.000Z,30
2018-09-09T19:13:40.000Z,30
2018-09-09T19:15:40.000Z,30
2018-09-09T19:16:40.000Z,30
2018-09-09T19:17:40.000Z,30
2018-09-09T19:18:40.000Z,30.1
2018-09-09T19:20:40.000Z,30.1
2018-09-09T19:21:40.000Z,30.1
2018-09-09T19:23:40.000Z,30
2018-09-09T19:24:40.000Z,30
2018-09-09T19:26:40.000Z,30
2018-09-09T19:28:40.000Z,29.9
2018-09-09T19:29:40.000Z,29.9
2018-09-09T19:31:40.000Z,30
2018-09-09T19:33:40.000Z,29.9
2018-09-09T19:35:40.000Z,29.8
2018-09-09T19:37:40.000Z,29.7
2018-09-09T19:39:40.000Z,29.7
2018-09-09T19:41:40.000Z,29.6
2018-09-09T19:43:40.000Z,29.6
2018-09-09T19:45:40.000Z,29.6
2018-09-09T19:47:40.000Z,29.6
2018-09-09T19:49:40.000Z,29.6
2018-09-09T19:51:40.000Z,29.6
2018-09-09T19:52:40.000Z,29.7
2018-09-09T19:54:40.000Z,29.7
2018-09-09T19:55:40.000Z,29.7
2018-09-09T19:57:40.000Z,29.7
2018-09-09T19:58:40.000Z,29.8
2018-09-09T20:00:40.000Z,29.8
2018-09-09T20:02:40.000Z,29.8
2018-09-09T20:03:40.000Z,29.8
2018-09-09T20:05:40.000Z,29.8
2018-09-09T20:07:25.000Z,29.8
2018-09-09T20:08:40.000Z,29.7
2018-09-09T20:09:40.000Z,29.8
2018-09-09T20:11:40.000Z,29.8
2018-09-09T20:12:40.000Z,29.8
2018-09-09T20:14:40.000Z,29.8
2018-09-09T20:16:40.000Z,29.8
2018-09-09T20:17:40.000Z,29.8
2018-09-09T20:19:40.000Z,29.8
2018-09-09T20:20:40.000Z,29.8
2018-09-09T20:21:40.000Z,29.9
2018-09-09T20:23:40.000Z,29.9
2018-09-09T20:24:40.000Z,29.9
2018-09-09T20:26:40.000Z,29.9
2018-09-09T20:27:40.000Z,29.9
2018-09-09T20:29:25.000Z,29.9
2018-09-09T20:30:40.000Z,29.9
2018-09-09T20:31:40.000Z,29.9
2018-09-09T20:32:40.000Z,29.9
2018-09-09T20:34:40.000Z,29.9
2018-09-09T20:35:40.000Z,29.9
2018-09-09T20:36:40.000Z,29.9
2018-09-09T20:38:40.000Z,29.8
2018-09-09T20:39:40.000Z,29.8
2018-09-09T20:41:40.000Z,29.8
2018-09-09T20:43:40.000Z,29.7
2018-09-09T20:44:40.000Z,29.7
2018-09-09T20:46:40.000Z,29.7
2018-09-09T20:47:40.000Z,29.7
2018-09-09T20:49:40.000Z,29.7
2018-09-09T20:51:40.000Z,29.7
2018-09-09T20:52:40.000Z,29.7
2018-09-09T20:53:40.000Z,29.7
2018-09-09T20:55:40.000Z,29.8
2018-09-09T20:56:40.000Z,29.8
2018-09-09T20:57:40.000Z,29.8